EXS25PN LEMH-EGCC
Flight info
| Callsign | EXS25PN |
|---|---|
| Flight time | N/A |
| Altitude | 36000 |
| Route | MEROS N853 LUMAS DCT SOFFY DCT MRM DCT MTL DCT ETREK DCT MADOT DCT MOPEM DCT CACHI DCT AVLON DCT OKRIX DCT BRY DCT CLM DCT KOPOR DCT VESAN DCT RATUK DCT SOVAT L613 SANDY UN57 WELIN T420 ELVOS |
| Aircraft | A321/M-SDE3FGHIRWY/LB1 |
Departure
| Time | 2026-05-05 19:35 |
|---|---|
| Airport | Menorca Airport (LEMH) |
Arrival
| Time | N/A |
|---|---|
| Airport | Manchester Airport (EGCC) |
| Time | Latitude | Longitude | Altitude | Speed | Heading |
|---|---|---|---|---|---|
| 2026-05-05 19:30 | 39.86594 | 4.22175 | 295 ft | 9 kts | 357° |
| 2026-05-05 19:31 | 39.86667 | 4.22187 | 296 ft | 18 kts | 9° |
| 2026-05-05 19:31 | 39.86853 | 4.22228 | 302 ft | 32 kts | 8° |
| 2026-05-05 19:31 | 39.87069 | 4.22267 | 307 ft | 30 kts | 9° |
| 2026-05-05 19:31 | 39.87255 | 4.22309 | 309 ft | 25 kts | 9° |
| 2026-05-05 19:32 | 39.87398 | 4.22339 | 315 ft | 13 kts | 7° |
| 2026-05-05 19:32 | 39.87456 | 4.22289 | 316 ft | 10 kts | 284° |
| 2026-05-05 19:32 | 39.87436 | 4.22196 | 313 ft | 12 kts | 234° |
| 2026-05-05 19:32 | 39.87430 | 4.22186 | 313 ft | 2 kts | 230° |
| 2026-05-05 19:33 | 39.87377 | 4.22120 | 311 ft | 19 kts | 221° |
| 2026-05-05 19:33 | 39.87293 | 4.22078 | 310 ft | 0 kts | 188° |
| 2026-05-05 19:34 | 39.87283 | 4.22077 | 311 ft | 6 kts | 188° |
| 2026-05-05 19:35 | 39.86416 | 4.21897 | 305 ft | 123 kts | 189° |
| 2026-05-05 19:35 | 39.85442 | 4.21683 | 473 ft | 148 kts | 191° |
| 2026-05-05 19:35 | 39.84481 | 4.21466 | 1211 ft | 141 kts | 193° |
| 2026-05-05 19:35 | 39.83478 | 4.21252 | 1619 ft | 155 kts | 193° |
| 2026-05-05 19:36 | 39.82341 | 4.21007 | 1876 ft | 175 kts | 193° |
| 2026-05-05 19:36 | 39.81122 | 4.20751 | 2366 ft | 179 kts | 193° |
| 2026-05-05 19:36 | 39.79869 | 4.20492 | 2799 ft | 189 kts | 193° |
| 2026-05-05 19:36 | 39.78495 | 4.20202 | 3007 ft | 210 kts | 192° |
| 2026-05-05 19:37 | 39.76987 | 4.19796 | 3139 ft | 232 kts | 205° |
| 2026-05-05 19:37 | 39.75763 | 4.18391 | 3445 ft | 246 kts | 245° |
| 2026-05-05 19:37 | 39.75501 | 4.16208 | 4132 ft | 251 kts | 282° |
| 2026-05-05 19:37 | 39.76333 | 4.14233 | 4924 ft | 258 kts | 316° |
| 2026-05-05 19:38 | 39.77913 | 4.13069 | 5705 ft | 268 kts | 339° |
| 2026-05-05 19:38 | 39.79803 | 4.12829 | 6437 ft | 282 kts | 6° |
| 2026-05-05 19:38 | 39.81739 | 4.13418 | 7169 ft | 288 kts | 11° |
| 2026-05-05 19:38 | 39.83698 | 4.14079 | 7935 ft | 293 kts | 11° |
| 2026-05-05 19:39 | 39.85685 | 4.14754 | 8679 ft | 298 kts | 11° |
| 2026-05-05 19:39 | 39.87708 | 4.15440 | 9430 ft | 303 kts | 11° |
| 2026-05-05 19:39 | 39.89766 | 4.16138 | 10111 ft | 310 kts | 11° |
| 2026-05-05 19:39 | 39.91931 | 4.16864 | 10315 ft | 333 kts | 11° |
| 2026-05-05 19:40 | 39.94252 | 4.17641 | 10579 ft | 352 kts | 11° |
| 2026-05-05 19:40 | 39.96649 | 4.18449 | 11158 ft | 360 kts | 11° |
| 2026-05-05 19:40 | 39.99094 | 4.19277 | 11798 ft | 365 kts | 11° |
| 2026-05-05 19:40 | 40.01577 | 4.20116 | 12404 ft | 372 kts | 11° |
| 2026-05-05 19:41 | 40.04096 | 4.20969 | 13062 ft | 377 kts | 11° |
| 2026-05-05 19:41 | 40.06649 | 4.21838 | 13708 ft | 382 kts | 11° |
| 2026-05-05 19:41 | 40.09237 | 4.22722 | 14290 ft | 386 kts | 11° |
| 2026-05-05 19:41 | 40.11848 | 4.23613 | 14902 ft | 390 kts | 11° |
| 2026-05-05 19:42 | 40.14491 | 4.24512 | 15518 ft | 394 kts | 11° |
| 2026-05-05 19:42 | 40.17153 | 4.25418 | 16124 ft | 397 kts | 10° |
| 2026-05-05 19:42 | 40.19806 | 4.26320 | 16731 ft | 402 kts | 10° |
| 2026-05-05 19:42 | 40.22528 | 4.27247 | 17319 ft | 406 kts | 10° |
| 2026-05-05 19:43 | 40.25271 | 4.28183 | 17913 ft | 409 kts | 10° |
| 2026-05-05 19:43 | 40.28042 | 4.29127 | 18454 ft | 413 kts | 10° |
| 2026-05-05 19:43 | 40.30834 | 4.30079 | 18959 ft | 416 kts | 10° |
| 2026-05-05 19:43 | 40.33645 | 4.31038 | 19477 ft | 419 kts | 10° |
| 2026-05-05 19:44 | 40.36479 | 4.32006 | 19993 ft | 422 kts | 9° |
| 2026-05-05 19:44 | 40.39329 | 4.32978 | 20494 ft | 425 kts | 9° |
| 2026-05-05 19:44 | 40.42204 | 4.33961 | 20985 ft | 429 kts | 9° |
| 2026-05-05 19:44 | 40.45104 | 4.34957 | 21451 ft | 433 kts | 9° |
| 2026-05-05 19:45 | 40.48026 | 4.35963 | 21931 ft | 436 kts | 9° |
| 2026-05-05 19:45 | 40.50971 | 4.36950 | 22408 ft | 438 kts | 7° |
| 2026-05-05 19:45 | 40.53955 | 4.37796 | 22874 ft | 440 kts | 4° |
| 2026-05-05 19:45 | 40.56975 | 4.38519 | 23331 ft | 441 kts | 3° |
| 2026-05-05 19:46 | 40.60016 | 4.39179 | 23725 ft | 444 kts | 2° |
| 2026-05-05 19:46 | 40.63075 | 4.39826 | 24088 ft | 447 kts | 2° |
| 2026-05-05 19:46 | 40.66157 | 4.40500 | 24449 ft | 451 kts | 3° |
| 2026-05-05 19:46 | 40.69257 | 4.41212 | 24807 ft | 454 kts | 3° |
| 2026-05-05 19:47 | 40.72386 | 4.41957 | 25166 ft | 458 kts | 4° |
| 2026-05-05 19:47 | 40.74466 | 4.42462 | 25399 ft | 460 kts | 4° |
| 2026-05-05 19:47 | 40.77625 | 4.43237 | 25755 ft | 463 kts | 4° |
| 2026-05-05 19:47 | 40.80803 | 4.44017 | 26104 ft | 466 kts | 4° |
| 2026-05-05 19:48 | 40.84001 | 4.44797 | 26447 ft | 469 kts | 4° |
| 2026-05-05 19:48 | 40.87229 | 4.45577 | 26753 ft | 473 kts | 4° |
| 2026-05-05 19:48 | 40.90482 | 4.46358 | 27082 ft | 476 kts | 4° |
| 2026-05-05 19:48 | 40.93747 | 4.47144 | 27411 ft | 479 kts | 4° |
| 2026-05-05 19:49 | 40.97044 | 4.47939 | 27742 ft | 482 kts | 4° |
| 2026-05-05 19:49 | 41.00352 | 4.48747 | 28068 ft | 485 kts | 4° |
| 2026-05-05 19:49 | 41.03685 | 4.49569 | 28389 ft | 488 kts | 4° |
| 2026-05-05 19:49 | 41.07033 | 4.50394 | 28702 ft | 492 kts | 4° |
| 2026-05-05 19:50 | 41.10415 | 4.51217 | 28980 ft | 495 kts | 4° |
| 2026-05-05 19:50 | 41.13812 | 4.52039 | 29272 ft | 498 kts | 4° |
| 2026-05-05 19:50 | 41.17231 | 4.52866 | 29562 ft | 501 kts | 4° |
| 2026-05-05 19:50 | 41.20668 | 4.53705 | 29844 ft | 503 kts | 4° |
| 2026-05-05 19:51 | 41.24120 | 4.54555 | 30102 ft | 506 kts | 4° |
| 2026-05-05 19:51 | 41.27594 | 4.55409 | 30386 ft | 508 kts | 4° |
| 2026-05-05 19:51 | 41.31079 | 4.56263 | 30639 ft | 510 kts | 4° |
| 2026-05-05 19:51 | 41.34575 | 4.57116 | 30905 ft | 512 kts | 4° |
| 2026-05-05 19:52 | 41.38079 | 4.57969 | 31237 ft | 512 kts | 4° |
| 2026-05-05 19:52 | 41.41536 | 4.58808 | 31597 ft | 512 kts | 4° |
| 2026-05-05 19:52 | 41.45035 | 4.59657 | 31979 ft | 511 kts | 4° |
| 2026-05-05 19:52 | 41.48527 | 4.60515 | 32390 ft | 510 kts | 4° |
| 2026-05-05 19:53 | 41.52022 | 4.61380 | 32762 ft | 510 kts | 4° |
| 2026-05-05 19:53 | 41.55513 | 4.62248 | 33136 ft | 510 kts | 4° |
| 2026-05-05 19:53 | 41.58998 | 4.63114 | 33530 ft | 509 kts | 4° |
| 2026-05-05 19:53 | 41.62474 | 4.63976 | 33881 ft | 509 kts | 4° |
| 2026-05-05 19:54 | 41.65956 | 4.64836 | 34218 ft | 508 kts | 4° |
| 2026-05-05 19:54 | 41.69422 | 4.65693 | 34614 ft | 506 kts | 4° |
| 2026-05-05 19:54 | 41.72875 | 4.66567 | 34957 ft | 505 kts | 6° |
| 2026-05-05 19:54 | 41.76278 | 4.67807 | 35303 ft | 507 kts | 10° |
| 2026-05-05 19:55 | 41.79655 | 4.69133 | 35655 ft | 505 kts | 10° |